createdAt,value
2022-08-24T00:00:59.098Z,21.65
2022-08-24T00:03:25.590Z,21.67
2022-08-24T00:05:51.830Z,21.65
2022-08-24T00:08:18.257Z,21.59
2022-08-24T00:10:44.621Z,21.52
2022-08-24T00:13:10.988Z,21.48
2022-08-24T00:15:37.383Z,21.52
2022-08-24T00:18:04.108Z,21.55
2022-08-24T00:20:30.353Z,21.52
2022-08-24T00:22:56.733Z,21.50
2022-08-24T00:25:23.099Z,21.47
2022-08-24T00:27:49.513Z,21.48
2022-08-24T00:30:15.898Z,21.45
2022-08-24T00:32:42.314Z,21.45
2022-08-24T00:35:08.742Z,21.38
2022-08-24T00:37:35.183Z,21.38
2022-08-24T00:40:01.648Z,21.36
2022-08-24T00:42:27.944Z,21.30
2022-08-24T00:44:54.328Z,21.29
2022-08-24T00:47:20.717Z,21.33
2022-08-24T00:49:47.100Z,21.40
2022-08-24T00:52:13.504Z,21.43
2022-08-24T00:54:45.929Z,21.44
2022-08-24T00:57:06.339Z,21.45
2022-08-24T00:59:32.744Z,21.38
2022-08-24T01:01:59.216Z,21.31
2022-08-24T01:04:25.518Z,21.32
2022-08-24T01:06:51.904Z,21.33
2022-08-24T01:09:18.271Z,21.34
2022-08-24T01:11:44.670Z,21.31
2022-08-24T01:14:11.062Z,21.31
2022-08-24T01:16:37.496Z,21.29
2022-08-24T01:19:03.926Z,21.24
2022-08-24T01:21:30.360Z,21.20
2022-08-24T01:23:56.744Z,21.15
2022-08-24T01:26:23.119Z,21.13
2022-08-24T01:28:49.555Z,21.11
2022-08-24T01:31:15.966Z,21.13
2022-08-24T01:33:42.422Z,21.12
2022-08-24T01:36:08.855Z,21.11
2022-08-24T01:38:35.290Z,21.14
2022-08-24T01:41:01.724Z,21.12
2022-08-24T01:43:28.142Z,21.01
2022-08-24T01:45:54.587Z,20.95
2022-08-24T01:48:22.746Z,20.98
2022-08-24T01:50:47.355Z,20.96
2022-08-24T01:53:13.745Z,20.98
2022-08-24T01:55:40.132Z,21.03
2022-08-24T01:58:06.531Z,21.04
2022-08-24T02:00:32.921Z,21.03
2022-08-24T02:02:59.405Z,21.02
2022-08-24T02:05:25.668Z,21.00
2022-08-24T02:07:52.031Z,20.98
2022-08-24T02:10:18.510Z,20.97
2022-08-24T02:12:44.874Z,20.97
2022-08-24T02:15:11.273Z,20.98
2022-08-24T02:17:37.679Z,20.96
2022-08-24T02:20:04.052Z,20.98
2022-08-24T02:22:30.437Z,20.98
2022-08-24T02:24:56.808Z,20.99
2022-08-24T02:27:23.190Z,20.96
2022-08-24T02:29:49.586Z,20.97
2022-08-24T02:32:15.971Z,20.96
2022-08-24T02:34:42.336Z,20.94
2022-08-24T02:37:08.759Z,20.93
2022-08-24T02:39:35.194Z,20.92
2022-08-24T02:42:01.556Z,20.90
2022-08-24T02:44:27.960Z,20.86
2022-08-24T02:46:54.382Z,20.84
2022-08-24T02:49:20.827Z,20.79
2022-08-24T02:51:47.258Z,20.83
2022-08-24T02:54:13.654Z,20.86
2022-08-24T02:56:40.022Z,20.85
2022-08-24T02:59:06.452Z,20.85
2022-08-24T03:01:32.969Z,20.85
2022-08-24T03:03:59.312Z,20.80
2022-08-24T03:06:25.757Z,20.73
2022-08-24T03:08:56.204Z,20.71
2022-08-24T03:11:18.503Z,20.66
2022-08-24T03:13:44.946Z,20.63
2022-08-24T03:16:11.330Z,20.62
2022-08-24T03:18:37.713Z,20.62
2022-08-24T03:21:04.139Z,20.62
2022-08-24T03:23:31.983Z,20.66
2022-08-24T03:25:56.980Z,20.64
2022-08-24T03:28:23.441Z,20.64
2022-08-24T03:30:49.912Z,20.72
2022-08-24T03:33:16.313Z,20.74
2022-08-24T03:35:42.671Z,20.79
2022-08-24T03:38:09.075Z,20.88
2022-08-24T03:40:35.522Z,20.88
2022-08-24T03:43:01.960Z,20.85
2022-08-24T03:45:28.242Z,20.82
2022-08-24T03:47:54.609Z,20.81
2022-08-24T03:50:20.995Z,20.84
2022-08-24T03:52:47.371Z,20.83
2022-08-24T03:55:13.748Z,20.84
2022-08-24T03:57:40.232Z,20.84
2022-08-24T04:00:06.660Z,20.90
2022-08-24T04:02:33.240Z,20.93
2022-08-24T04:04:59.503Z,20.95
2022-08-24T04:07:25.876Z,20.97
2022-08-24T04:09:52.299Z,20.97
2022-08-24T04:12:18.721Z,20.97
2022-08-24T04:14:45.088Z,20.99
2022-08-24T04:17:11.459Z,20.99
2022-08-24T04:19:37.847Z,21.02
2022-08-24T04:22:04.255Z,21.04
2022-08-24T04:24:30.626Z,21.06
2022-08-24T04:26:57.024Z,21.07
2022-08-24T04:29:23.624Z,21.09
2022-08-24T04:31:50.127Z,21.09
2022-08-24T04:34:16.534Z,21.12
2022-08-24T04:36:42.909Z,21.15
2022-08-24T04:39:09.753Z,21.19
2022-08-24T04:41:36.139Z,21.23
2022-08-24T04:44:02.492Z,21.30
2022-08-24T04:46:28.896Z,21.44
2022-08-24T04:48:55.334Z,21.52
2022-08-24T04:51:21.718Z,21.64
2022-08-24T04:53:48.115Z,21.73
2022-08-24T04:56:14.500Z,21.78
2022-08-24T04:58:40.961Z,21.89
2022-08-24T05:01:07.437Z,21.98
2022-08-24T05:03:33.747Z,22.01
2022-08-24T05:06:00.146Z,22.08
2022-08-24T05:08:26.566Z,22.05
2022-08-24T05:10:52.954Z,22.05
2022-08-24T05:13:19.331Z,22.11
2022-08-24T05:15:45.717Z,22.16
2022-08-24T05:18:12.076Z,22.21
2022-08-24T05:20:38.490Z,22.23
2022-08-24T05:23:04.988Z,22.27
2022-08-24T05:25:31.416Z,22.32
2022-08-24T05:27:57.787Z,22.40
2022-08-24T05:30:24.218Z,22.47
2022-08-24T05:32:50.711Z,22.54
2022-08-24T05:35:17.146Z,22.62
2022-08-24T05:37:43.553Z,22.73
2022-08-24T05:40:10.190Z,22.85
2022-08-24T05:42:36.547Z,22.96
2022-08-24T05:45:02.920Z,23.08
2022-08-24T05:47:29.282Z,23.15
2022-08-24T05:49:55.662Z,23.20
2022-08-24T05:52:22.052Z,23.29
2022-08-24T05:54:48.500Z,23.37
2022-08-24T05:57:14.940Z,23.45
2022-08-24T05:59:41.304Z,23.52
2022-08-24T06:02:07.782Z,23.58
2022-08-24T06:04:34.079Z,23.70
2022-08-24T06:07:00.441Z,23.84
2022-08-24T06:09:26.838Z,24.03
2022-08-24T06:11:53.482Z,24.19
2022-08-24T06:14:23.889Z,24.45
2022-08-24T06:16:46.357Z,24.79
2022-08-24T06:19:12.696Z,24.95
2022-08-24T06:21:39.061Z,25.16
2022-08-24T06:24:05.498Z,25.34
2022-08-24T06:26:31.902Z,25.45
2022-08-24T06:28:58.276Z,25.58
2022-08-24T06:31:24.727Z,25.70
2022-08-24T06:33:51.039Z,25.82
2022-08-24T06:36:17.419Z,25.96
2022-08-24T06:38:45.464Z,26.16
2022-08-24T06:41:10.486Z,26.34
2022-08-24T06:43:36.882Z,26.47
2022-08-24T06:46:03.281Z,26.59
2022-08-24T06:48:29.638Z,26.86
2022-08-24T06:50:56.065Z,27.18
2022-08-24T06:53:22.472Z,27.43
2022-08-24T06:55:48.845Z,27.62
2022-08-24T06:58:15.218Z,27.73
2022-08-24T07:00:41.607Z,28.04
2022-08-24T07:03:08.062Z,28.15
2022-08-24T07:05:34.451Z,28.16
2022-08-24T07:08:00.886Z,28.25
2022-08-24T07:10:28.004Z,28.38
2022-08-24T07:12:53.618Z,28.52
2022-08-24T07:15:20.038Z,28.59
2022-08-24T07:17:46.403Z,28.60
2022-08-24T07:20:12.780Z,28.69
2022-08-24T07:22:39.212Z,28.93
2022-08-24T07:25:05.585Z,28.99
2022-08-24T07:27:31.959Z,29.02
2022-08-24T07:30:23.212Z,28.99
2022-08-24T07:32:24.764Z,29.01
2022-08-24T07:34:51.240Z,29.16
2022-08-24T07:37:17.633Z,29.52
2022-08-24T07:39:44.067Z,29.88
2022-08-24T07:42:18.861Z,30.28
2022-08-24T07:44:36.808Z,30.49
2022-08-24T07:47:15.423Z,30.72
2022-08-24T07:49:36.864Z,30.88
2022-08-24T07:51:55.909Z,31.03
2022-08-24T07:54:22.297Z,30.97
2022-08-24T07:56:48.681Z,30.87
2022-08-24T07:59:15.059Z,31.00
2022-08-24T08:01:41.561Z,31.13
2022-08-24T08:04:07.922Z,31.04
2022-08-24T08:06:34.286Z,31.04
2022-08-24T08:09:00.791Z,31.05
2022-08-24T08:11:27.164Z,31.07
2022-08-24T08:13:53.593Z,31.20
2022-08-24T08:16:20.019Z,31.49
2022-08-24T08:18:52.015Z,31.66
2022-08-24T08:21:14.261Z,31.83
2022-08-24T08:23:39.185Z,32.00
2022-08-24T08:26:05.574Z,32.05
2022-08-24T08:28:35.575Z,32.18
2022-08-24T08:30:58.439Z,32.30
2022-08-24T08:33:24.737Z,32.39
2022-08-24T08:35:51.144Z,32.36
2022-08-24T08:38:17.512Z,32.26
2022-08-24T08:40:43.909Z,32.18
2022-08-24T08:43:10.326Z,32.18
2022-08-24T08:45:36.721Z,32.18
2022-08-24T08:50:29.468Z,32.42
2022-08-24T08:52:55.857Z,32.58
2022-08-24T08:55:22.241Z,32.59
2022-08-24T08:57:48.637Z,32.67
2022-08-24T09:00:15.701Z,32.68
2022-08-24T09:02:41.498Z,32.50
2022-08-24T09:05:07.902Z,32.72
2022-08-24T09:07:34.295Z,32.72
2022-08-24T09:10:00.683Z,32.50
2022-08-24T09:12:27.059Z,32.53
2022-08-24T09:14:53.564Z,32.76
2022-08-24T09:17:19.997Z,32.83
2022-08-24T09:19:46.323Z,32.71
2022-08-24T09:22:12.713Z,32.80
2022-08-24T09:24:39.089Z,33.00
2022-08-24T09:27:05.524Z,32.94
2022-08-24T09:29:31.895Z,32.99
2022-08-24T09:31:58.283Z,33.13
2022-08-24T09:34:24.699Z,33.30
2022-08-24T09:36:51.115Z,33.39
2022-08-24T09:39:17.483Z,33.42
2022-08-24T09:41:43.874Z,33.09
2022-08-24T09:44:10.282Z,32.78
2022-08-24T09:46:36.678Z,32.72
2022-08-24T09:49:03.110Z,32.81
2022-08-24T09:51:29.492Z,32.92
2022-08-24T09:53:55.899Z,32.66
2022-08-24T09:56:22.306Z,32.64
2022-08-24T09:58:48.695Z,32.73
2022-08-24T10:01:15.226Z,32.95
2022-08-24T10:03:41.560Z,33.15
2022-08-24T10:06:08.036Z,33.39
2022-08-24T10:08:34.348Z,33.46
2022-08-24T10:11:01.743Z,33.32
2022-08-24T10:13:28.140Z,33.44
2022-08-24T10:15:54.585Z,33.56
2022-08-24T10:18:21.024Z,33.61
2022-08-24T10:20:50.323Z,33.48
2022-08-24T10:23:16.723Z,33.35
2022-08-24T10:25:43.103Z,33.39
2022-08-24T10:28:09.477Z,33.16
2022-08-24T10:30:35.850Z,32.70
2022-08-24T10:33:02.226Z,32.47
2022-08-24T10:35:28.590Z,32.37
2022-08-24T10:37:54.961Z,32.39
2022-08-24T10:40:21.392Z,32.40
2022-08-24T10:42:47.770Z,32.31
2022-08-24T10:45:14.150Z,32.10
2022-08-24T10:47:40.542Z,32.07
2022-08-24T10:50:07.007Z,32.16
2022-08-24T10:52:33.448Z,32.21
2022-08-24T10:54:59.830Z,32.40
2022-08-24T10:57:26.198Z,32.44
2022-08-24T10:59:53.154Z,32.60
2022-08-24T11:02:18.983Z,32.69
2022-08-24T11:04:45.330Z,32.71
2022-08-24T11:07:11.715Z,32.74
2022-08-24T11:09:38.217Z,32.83
2022-08-24T11:12:04.599Z,32.93
2022-08-24T11:14:30.975Z,32.98
2022-08-24T11:16:58.122Z,32.81
2022-08-24T11:19:23.772Z,32.55
2022-08-24T11:21:50.132Z,32.75
2022-08-24T11:24:16.565Z,32.91
2022-08-24T11:26:42.947Z,32.85
2022-08-24T11:29:09.329Z,32.61
2022-08-24T11:31:36.207Z,32.54
2022-08-24T11:34:02.089Z,32.70
2022-08-24T11:36:28.500Z,32.73
2022-08-24T11:38:54.896Z,32.84
2022-08-24T11:41:21.275Z,32.79
2022-08-24T11:43:47.867Z,32.68
2022-08-24T11:46:14.296Z,32.52
2022-08-24T11:48:40.626Z,32.65
2022-08-24T11:51:07.124Z,32.89
2022-08-24T11:53:33.575Z,32.91
2022-08-24T11:56:00.284Z,32.99
2022-08-24T11:58:26.592Z,33.06
2022-08-24T12:00:53.059Z,33.10
2022-08-24T12:03:19.505Z,32.94
2022-08-24T12:05:45.923Z,32.97
2022-08-24T12:08:12.338Z,32.70
2022-08-24T12:10:38.787Z,32.57
2022-08-24T12:13:05.151Z,32.54
2022-08-24T12:15:31.521Z,32.70
2022-08-24T12:17:58.003Z,32.79
2022-08-24T12:20:24.304Z,32.84
2022-08-24T12:22:50.675Z,32.90
2022-08-24T12:25:17.180Z,32.91
2022-08-24T12:27:43.629Z,32.82
2022-08-24T12:30:10.091Z,32.73
2022-08-24T12:32:36.437Z,32.50
2022-08-24T12:35:02.956Z,32.41
2022-08-24T12:37:29.360Z,32.18
2022-08-24T12:39:55.767Z,32.14
2022-08-24T12:42:22.125Z,32.16
2022-08-24T12:44:48.529Z,32.10
2022-08-24T12:47:14.908Z,32.07
2022-08-24T12:49:41.321Z,32.08
2022-08-24T12:52:07.698Z,32.11
2022-08-24T12:54:34.157Z,32.12
2022-08-24T12:57:02.495Z,32.09
2022-08-24T12:59:26.911Z,31.82
2022-08-24T13:01:53.346Z,31.79
2022-08-24T13:04:19.680Z,31.79
2022-08-24T13:06:46.070Z,31.78
2022-08-24T13:09:12.439Z,31.69
2022-08-24T13:11:38.837Z,31.64
2022-08-24T13:14:05.220Z,31.62
2022-08-24T13:16:31.730Z,31.56
2022-08-24T13:18:58.021Z,31.43
2022-08-24T13:21:24.393Z,31.28
2022-08-24T13:23:50.759Z,31.15
2022-08-24T13:26:17.131Z,31.05
2022-08-24T13:28:43.506Z,30.89
2022-08-24T13:31:09.947Z,30.88
2022-08-24T13:33:36.243Z,30.88
2022-08-24T13:36:02.627Z,30.86
2022-08-24T13:38:28.988Z,30.90
2022-08-24T13:40:55.404Z,30.95
2022-08-24T13:43:21.783Z,30.92
2022-08-24T13:45:48.169Z,30.84
2022-08-24T13:48:14.534Z,30.83
2022-08-24T13:50:41.008Z,30.74
2022-08-24T13:53:07.438Z,30.56
2022-08-24T13:55:33.866Z,30.52
2022-08-24T13:58:00.289Z,30.49
2022-08-24T14:00:26.636Z,30.58
2022-08-24T14:02:53.021Z,30.59
2022-08-24T14:05:19.416Z,30.59
2022-08-24T14:07:45.763Z,30.43
2022-08-24T14:10:12.164Z,30.22
2022-08-24T14:12:38.535Z,30.26
2022-08-24T14:15:05.029Z,30.32
2022-08-24T14:17:35.649Z,30.30
2022-08-24T14:19:57.858Z,30.29
2022-08-24T14:22:24.329Z,30.28
2022-08-24T14:24:50.702Z,30.26
2022-08-24T14:27:17.083Z,30.21
2022-08-24T14:29:43.482Z,30.19
2022-08-24T14:32:12.522Z,30.11
2022-08-24T14:34:36.294Z,30.06
2022-08-24T14:37:02.698Z,29.98
2022-08-24T14:39:29.069Z,30.00
2022-08-24T14:41:55.434Z,30.02
2022-08-24T14:44:21.858Z,30.01
2022-08-24T14:46:48.278Z,29.96
2022-08-24T14:49:14.626Z,29.92
2022-08-24T14:51:41.037Z,29.89
2022-08-24T14:54:07.403Z,29.83
2022-08-24T14:56:33.785Z,29.81
2022-08-24T14:59:00.176Z,29.72
2022-08-24T15:01:26.594Z,29.65
2022-08-24T15:03:52.992Z,29.62
2022-08-24T15:06:26.811Z,29.57
2022-08-24T15:08:45.732Z,29.51
2022-08-24T15:11:12.113Z,29.43
2022-08-24T15:13:38.481Z,29.40
2022-08-24T15:16:04.997Z,29.41
2022-08-24T15:18:36.209Z,29.35
2022-08-24T15:20:57.753Z,29.34
2022-08-24T15:23:24.146Z,29.25
2022-08-24T15:25:50.538Z,29.18
2022-08-24T15:28:16.906Z,29.19
2022-08-24T15:30:43.345Z,29.15
2022-08-24T15:33:09.716Z,29.09
2022-08-24T15:35:36.214Z,29.12
2022-08-24T15:38:02.716Z,29.10
2022-08-24T15:40:29.025Z,29.02
2022-08-24T15:42:55.406Z,29.01
2022-08-24T15:45:21.824Z,28.96
2022-08-24T15:47:51.753Z,28.98
2022-08-24T15:50:14.797Z,28.96
2022-08-24T15:52:41.197Z,28.93
2022-08-24T15:55:07.588Z,28.87
2022-08-24T15:57:33.990Z,28.85
2022-08-24T16:00:00.559Z,28.82
2022-08-24T16:02:26.967Z,28.75
2022-08-24T16:04:53.253Z,28.66
2022-08-24T16:07:19.668Z,28.60
2022-08-24T16:09:46.050Z,28.54
2022-08-24T16:12:12.833Z,28.46
2022-08-24T16:14:38.832Z,28.40
2022-08-24T16:17:05.280Z,28.35
2022-08-24T16:19:31.582Z,28.30
2022-08-24T16:21:58.514Z,28.27
2022-08-24T16:24:24.417Z,28.14
2022-08-24T16:26:50.826Z,28.09
2022-08-24T16:29:17.224Z,28.06
2022-08-24T16:31:43.641Z,28.02
2022-08-24T16:34:10.026Z,27.94
2022-08-24T16:36:36.410Z,27.85
2022-08-24T16:39:02.775Z,27.81
2022-08-24T16:41:29.162Z,27.82
2022-08-24T16:43:55.581Z,27.82
2022-08-24T16:46:22.012Z,27.82
2022-08-24T16:48:48.351Z,27.81
2022-08-24T16:51:14.844Z,27.86
2022-08-24T16:53:41.225Z,27.83
2022-08-24T16:56:07.619Z,27.75
2022-08-24T16:58:34.017Z,27.69
2022-08-24T17:01:00.483Z,27.66
2022-08-24T17:03:26.773Z,27.54
2022-08-24T17:05:53.208Z,27.45
2022-08-24T17:08:19.608Z,27.44
2022-08-24T17:10:46.051Z,27.43
2022-08-24T17:13:16.588Z,27.36
2022-08-24T17:15:38.866Z,27.31
2022-08-24T17:18:05.405Z,27.24
2022-08-24T17:20:31.664Z,27.23
2022-08-24T17:22:58.041Z,27.23
2022-08-24T17:25:24.453Z,27.17
2022-08-24T17:27:50.811Z,27.07
2022-08-24T17:30:17.217Z,27.00
2022-08-24T17:32:43.623Z,26.99
2022-08-24T17:35:09.990Z,27.02
2022-08-24T17:37:36.643Z,27.04
2022-08-24T17:40:03.101Z,26.98
2022-08-24T17:42:49.516Z,26.91
2022-08-24T17:44:55.919Z,26.91
2022-08-24T17:47:22.290Z,26.92
2022-08-24T17:49:48.661Z,26.91
2022-08-24T17:52:15.026Z,26.86
2022-08-24T17:54:41.404Z,26.87
2022-08-24T17:57:07.786Z,26.88
2022-08-24T17:59:34.172Z,26.87
2022-08-24T18:02:00.561Z,26.85
2022-08-24T18:04:26.993Z,26.79
2022-08-24T18:06:53.351Z,26.76
2022-08-24T18:09:19.721Z,26.76
2022-08-24T18:11:46.176Z,26.74
2022-08-24T18:14:12.602Z,26.66
2022-08-24T18:16:39.064Z,26.56
2022-08-24T18:19:05.337Z,26.52
2022-08-24T18:21:31.738Z,26.50
2022-08-24T18:23:58.149Z,26.47
2022-08-24T18:26:28.127Z,26.47
2022-08-24T18:28:50.893Z,26.47
2022-08-24T18:31:17.331Z,26.45
2022-08-24T18:33:43.642Z,26.42
2022-08-24T18:36:10.008Z,26.38
2022-08-24T18:38:36.422Z,26.34
2022-08-24T18:41:02.936Z,26.32
2022-08-24T18:43:29.301Z,26.31
2022-08-24T18:45:55.752Z,26.28
2022-08-24T18:48:22.090Z,26.28
2022-08-24T18:50:48.473Z,26.29
2022-08-24T18:53:14.910Z,26.29
2022-08-24T18:55:41.295Z,26.27
2022-08-24T18:58:07.802Z,26.22
2022-08-24T19:00:34.309Z,26.18
2022-08-24T19:03:00.605Z,26.11
2022-08-24T19:05:26.980Z,26.10
2022-08-24T19:07:53.352Z,26.11
2022-08-24T19:10:19.706Z,26.10
2022-08-24T19:12:46.926Z,26.09
2022-08-24T19:15:31.979Z,26.07
2022-08-24T19:17:38.880Z,26.05
2022-08-24T19:20:05.252Z,26.00
2022-08-24T19:22:31.655Z,25.95
2022-08-24T19:24:58.038Z,25.94
2022-08-24T19:27:24.401Z,25.92
2022-08-24T19:29:57.977Z,25.90
2022-08-24T19:32:21.934Z,25.85
2022-08-24T19:34:43.549Z,25.78
2022-08-24T19:37:09.941Z,25.68
2022-08-24T19:39:36.428Z,25.60
2022-08-24T19:42:02.858Z,25.60
2022-08-24T19:44:29.474Z,25.62
2022-08-24T19:46:55.969Z,25.60
2022-08-24T19:49:22.475Z,25.56
2022-08-24T19:51:48.853Z,25.53
2022-08-24T19:54:15.248Z,25.53
2022-08-24T19:56:41.668Z,25.53
2022-08-24T19:59:08.054Z,25.52
2022-08-24T20:01:34.642Z,25.48
2022-08-24T20:04:00.868Z,25.45
2022-08-24T20:06:27.249Z,25.43
2022-08-24T20:08:53.622Z,25.44
2022-08-24T20:11:20.060Z,25.43
2022-08-24T20:13:46.423Z,25.46
2022-08-24T20:16:12.886Z,25.48
2022-08-24T20:18:39.210Z,25.48
2022-08-24T20:21:05.599Z,25.44
2022-08-24T20:23:32.022Z,25.43
2022-08-24T20:25:58.385Z,25.36
2022-08-24T20:28:29.236Z,25.38
2022-08-24T20:30:51.185Z,25.35
2022-08-24T20:33:17.548Z,25.31
2022-08-24T20:35:43.954Z,25.26
2022-08-24T20:38:10.341Z,25.24
2022-08-24T20:40:36.713Z,25.21
2022-08-24T20:43:03.250Z,25.15
2022-08-24T20:45:29.479Z,25.09
2022-08-24T20:47:55.939Z,25.03
2022-08-24T20:50:22.318Z,24.97
2022-08-24T20:52:48.680Z,24.94
2022-08-24T20:55:15.045Z,24.97
2022-08-24T20:57:41.569Z,25.00
2022-08-24T21:00:08.037Z,25.00
2022-08-24T21:02:34.366Z,24.98
2022-08-24T21:05:00.740Z,24.98
2022-08-24T21:07:27.124Z,24.97
2022-08-24T21:09:53.492Z,24.95
2022-08-24T21:12:20.022Z,24.94
2022-08-24T21:14:46.389Z,24.91
2022-08-24T21:17:12.832Z,24.93
2022-08-24T21:19:39.263Z,24.94
2022-08-24T21:22:05.630Z,24.97
2022-08-24T21:24:31.993Z,24.99
2022-08-24T21:26:58.393Z,24.99
2022-08-24T21:29:24.785Z,24.93
2022-08-24T21:31:51.272Z,24.90
2022-08-24T21:34:17.606Z,24.93
2022-08-24T21:36:43.986Z,24.89
2022-08-24T21:39:11.213Z,24.89
2022-08-24T21:41:36.788Z,24.88
2022-08-24T21:44:03.175Z,24.81
2022-08-24T21:46:29.658Z,24.75
2022-08-24T21:48:56.050Z,24.71
2022-08-24T21:51:22.423Z,24.66
2022-08-24T21:53:48.827Z,24.64
2022-08-24T21:56:15.221Z,24.63
2022-08-24T21:58:41.678Z,24.60
2022-08-24T22:01:08.063Z,24.57
2022-08-24T22:03:40.035Z,24.52
2022-08-24T22:06:00.978Z,24.48
2022-08-24T22:08:27.937Z,24.44
2022-08-24T22:10:53.845Z,24.42
2022-08-24T22:13:20.207Z,24.42
2022-08-24T22:15:46.631Z,24.42
2022-08-24T22:18:12.993Z,24.41
2022-08-24T22:20:39.384Z,24.42
2022-08-24T22:23:05.900Z,24.41
2022-08-24T22:25:32.230Z,24.42
2022-08-24T22:27:58.624Z,24.44
2022-08-24T22:30:24.989Z,24.41
2022-08-24T22:32:51.356Z,24.38
2022-08-24T22:35:17.729Z,24.36
2022-08-24T22:37:44.094Z,24.35
2022-08-24T22:40:12.679Z,24.32
2022-08-24T22:42:36.951Z,24.29
2022-08-24T22:45:03.390Z,24.30
2022-08-24T22:47:29.750Z,24.31
2022-08-24T22:49:56.261Z,24.32
2022-08-24T22:52:22.694Z,24.31
2022-08-24T22:54:49.140Z,24.31
2022-08-24T22:57:15.636Z,24.30
2022-08-24T22:59:41.922Z,24.27
2022-08-24T23:02:08.333Z,24.24
2022-08-24T23:04:34.685Z,24.18
2022-08-24T23:07:01.066Z,24.15
2022-08-24T23:09:27.459Z,24.12
2022-08-24T23:11:53.846Z,24.08
2022-08-24T23:14:20.219Z,24.08
2022-08-24T23:16:46.584Z,24.08
2022-08-24T23:19:13.046Z,24.05
2022-08-24T23:21:39.417Z,24.01
2022-08-24T23:24:05.805Z,23.99
2022-08-24T23:26:32.245Z,23.98
2022-08-24T23:28:58.679Z,23.97
2022-08-24T23:31:25.138Z,23.96
2022-08-24T23:33:51.461Z,23.94
2022-08-24T23:36:17.849Z,23.94
2022-08-24T23:38:44.316Z,23.93
2022-08-24T23:41:10.669Z,23.90
2022-08-24T23:43:37.062Z,23.88
2022-08-24T23:46:03.486Z,23.86
2022-08-24T23:48:29.938Z,23.84
2022-08-24T23:50:56.364Z,23.81
2022-08-24T23:53:22.753Z,23.78
2022-08-24T23:55:49.135Z,23.78
2022-08-24T23:58:15.503Z,23.77
